Time;durP1;ratioP1;P1;durP2;ratioP2;P2;SDS_P1;SDS_P2;PMS_P1;PMS_P2;Temp;Humidity;BMP_temperature;BMP_pressure;BME280_temperature;BME280_humidity;BME280_pressure;Samples;Min_cycle;Max_cycle;Signal;HPM_P1;HPM_P2
2023/05/21 00:00:44;;;;;;;20.75;18.48;;;;;;;14.93;84.41;95286.44;6282680;22;20215;-83
2023/05/21 00:03:12;;;;;;;22.17;19.27;;;;;;;14.94;84.37;95287.25;6310923;22;20152;-83
2023/05/21 00:05:41;;;;;;;21.70;19.40;;;;;;;14.93;84.72;95286.44;6311791;22;20156;-82
2023/05/21 00:08:07;;;;;;;21.97;19.47;;;;;;;14.90;84.62;95292.03;6311158;22;20182;-84
2023/05/21 00:10:32;;;;;;;24.27;20.80;;;;;;;14.86;85.41;95284.72;6257425;22;20179;-84
2023/05/21 00:12:57;;;;;;;23.67;19.93;;;;;;;14.87;84.99;95279.31;6284290;22;20704;-83
2023/05/21 00:15:23;;;;;;;22.50;20.20;;;;;;;14.86;85.24;95282.94;6260806;22;20156;-84
2023/05/21 00:17:48;;;;;;;22.63;20.43;;;;;;;14.87;85.09;95275.91;6275424;22;20187;-81
2023/05/21 00:20:15;;;;;;;21.87;19.77;;;;;;;14.85;85.64;95277.88;6276006;22;20157;-82
2023/05/21 00:22:41;;;;;;;24.63;19.87;;;;;;;14.81;85.34;95280.03;6277462;22;20193;-82
2023/05/21 00:25:06;;;;;;;21.73;19.43;;;;;;;14.78;85.26;95276.97;6277069;22;20172;-82
2023/05/21 00:27:32;;;;;;;22.97;19.17;;;;;;;14.77;85.35;95277.97;6277015;22;20157;-81
2023/05/21 00:29:57;;;;;;;21.97;19.17;;;;;;;14.72;85.67;95263.63;6303199;22;20163;-82
2023/05/21 00:32:22;;;;;;;26.63;20.13;;;;;;;14.67;86.28;95258.16;6277480;22;20172;-81
2023/05/21 00:34:48;;;;;;;22.50;20.07;;;;;;;14.68;86.05;95262.38;6276892;22;20148;-82
2023/05/21 00:37:14;;;;;;;24.40;20.80;;;;;;;14.66;86.06;95253.88;6269693;22;20188;-83
2023/05/21 00:39:39;;;;;;;21.80;19.50;;;;;;;14.65;85.76;95251.44;6248724;22;20156;-83
2023/05/21 00:42:05;;;;;;;24.00;20.67;;;;;;;14.63;85.76;95250.81;6249413;22;20484;-83
2023/05/21 00:44:33;;;;;;;22.83;20.53;;;;;;;14.60;86.29;95257.22;6249498;22;20160;-82
2023/05/21 00:47:00;;;;;;;24.23;21.73;;;;;;;14.61;86.46;95245.78;6223351;22;20496;-84
2023/05/21 00:49:27;;;;;;;22.47;20.17;;;;;;;14.57;87.14;95247.13;6224464;22;20808;-83
2023/05/21 00:51:53;;;;;;;24.10;21.60;;;;;;;14.60;86.77;95245.97;6275895;22;20204;-82
2023/05/21 00:54:19;;;;;;;23.33;20.90;;;;;;;14.61;86.56;95255.44;6223980;22;20472;-82
2023/05/21 00:56:44;;;;;;;24.30;21.77;;;;;;;14.59;86.47;95244.34;6247971;22;20226;-83
2023/05/21 00:59:10;;;;;;;26.03;21.97;;;;;;;14.53;87.82;95242.44;6224107;22;20156;-82
2023/05/21 01:01:35;;;;;;;24.40;21.87;;;;;;;14.52;87.91;95240.81;6275501;22;20200;-83
2023/05/21 01:04:01;;;;;;;23.90;21.30;;;;;;;14.55;87.60;95230.81;6249719;22;20218;-81
2023/05/21 01:06:33;;;;;;;25.00;22.40;;;;;;;14.56;87.74;95236.84;6248916;22;20175;-82
2023/05/21 01:08:58;;;;;;;23.23;20.57;;;;;;;14.56;87.46;95236.84;6226373;22;20223;-84
2023/05/21 01:11:45;;;;;;;24.33;21.73;;;;;;;14.57;87.53;95235.84;6249395;22;20541;-83
2023/05/21 01:14:11;;;;;;;25.27;22.23;;;;;;;14.53;87.63;95230.19;6225931;22;20163;-83
2023/05/21 01:16:37;;;;;;;24.40;21.90;;;;;;;14.53;87.79;95234.59;6224157;22;20203;-83
2023/05/21 01:19:04;;;;;;;26.93;22.10;;;;;;;14.51;87.89;95236.59;6231533;22;20598;-83
2023/05/21 01:21:29;;;;;;;24.30;21.73;;;;;;;14.50;87.75;95229.75;6224627;22;20180;-83
2023/05/21 01:23:55;;;;;;;24.90;22.20;;;;;;;14.47;88.31;95222.25;6224984;22;20668;-85
2023/05/21 01:26:20;;;;;;;26.90;22.87;;;;;;;14.48;88.31;95229.09;6224238;22;20175;-83
2023/05/21 01:28:46;;;;;;;25.87;23.00;;;;;;;14.45;88.45;95225.84;6225753;22;20160;-82
2023/05/21 01:31:33;;;;;;;26.30;21.90;;;;;;;14.45;88.78;95220.63;6224107;22;20180;-83
2023/05/21 01:34:00;;;;;;;25.33;21.73;;;;;;;14.42;89.01;95223.56;6224175;22;20158;-83
2023/05/21 01:36:31;;;;;;;24.70;21.57;;;;;;;14.42;88.30;95220.16;6224425;22;20468;-83
2023/05/21 01:39:01;;;;;;;24.03;21.47;;;;;;;14.36;88.53;95221.66;6251580;22;20278;-84
2023/05/21 01:41:27;;;;;;;30.67;23.00;;;;;;;14.35;88.31;95219.25;6225537;22;20575;-82
2023/05/21 01:43:54;;;;;;;26.17;23.10;;;;;;;14.33;88.69;95208.97;6251393;22;20231;-84
2023/05/21 01:46:24;;;;;;;25.87;23.07;;;;;;;14.29;88.92;95205.09;6224489;22;20229;-82
2023/05/21 01:48:50;;;;;;;26.87;23.97;;;;;;;14.28;88.59;95202.66;6250642;22;20261;-84
2023/05/21 01:51:15;;;;;;;25.33;22.30;;;;;;;14.24;88.86;95212.66;6225229;22;20185;-84
2023/05/21 01:53:40;;;;;;;26.40;23.53;;;;;;;14.20;89.40;95211.38;6226021;22;20179;-83
2023/05/21 01:56:06;;;;;;;25.43;22.70;;;;;;;14.16;89.53;95205.72;6227361;22;20153;-85
2023/05/21 01:58:31;;;;;;;25.43;22.67;;;;;;;14.13;89.43;95206.06;6224862;22;20173;-83
2023/05/21 02:00:57;;;;;;;27.73;24.07;;;;;;;14.11;90.06;95208.03;6250638;22;20173;-83
2023/05/21 02:03:24;;;;;;;26.07;23.27;;;;;;;14.14;90.10;95207.69;6225852;22;20218;-84
2023/05/21 02:05:50;;;;;;;27.40;23.77;;;;;;;14.13;89.85;95210.47;6225356;22;20163;-84
2023/05/21 02:08:18;;;;;;;26.37;23.57;;;;;;;14.14;89.95;95204.28;6225648;22;20182;-83
2023/05/21 02:10:43;;;;;;;27.33;23.93;;;;;;;14.07;90.38;95203.34;6225879;22;20756;-84
2023/05/21 02:13:09;;;;;;;26.10;23.30;;;;;;;14.10;90.50;95195.16;6251154;22;20175;-82
2023/05/21 02:15:34;;;;;;;27.07;23.40;;;;;;;14.08;90.37;95192.72;6225410;22;20152;-84
2023/05/21 02:17:59;;;;;;;27.97;24.90;;;;;;;14.08;90.70;95197.16;6224185;22;20193;-83
2023/05/21 02:20:25;;;;;;;29.57;25.43;;;;;;;14.08;90.80;95197.16;6278717;22;20493;-82
2023/05/21 02:22:50;;;;;;;29.67;24.73;;;;;;;14.06;90.85;95197.31;6255513;22;20612;-83
2023/05/21 02:25:18;;;;;;;28.63;25.57;;;;;;;14.06;91.16;95197.31;6257115;22;20259;-82
2023/05/21 02:27:45;;;;;;;33.23;24.90;;;;;;;14.05;91.07;95192.28;6230453;22;20180;-83
2023/05/21 02:30:12;;;;;;;27.40;24.43;;;;;;;14.08;90.77;95187.50;6258118;22;20505;-83
2023/05/21 02:32:41;;;;;;;27.87;24.87;;;;;;;14.05;90.87;95198.31;6319394;22;20174;-82
2023/05/21 02:35:07;;;;;;;30.57;25.70;;;;;;;14.06;91.47;95193.91;6262519;22;20178;-84
2023/05/21 02:37:33;;;;;;;26.13;23.40;;;;;;;14.05;91.15;95187.88;6259578;22;20647;-85
2023/05/21 02:39:59;;;;;;;27.70;24.53;;;;;;;14.04;91.21;95191.44;6266348;22;20210;-84
2023/05/21 02:42:25;;;;;;;35.87;27.37;;;;;;;14.02;91.87;95185.59;6271541;22;20178;-85
2023/05/21 02:44:50;;;;;;;29.97;24.43;;;;;;;14.02;91.86;95190.00;6272206;22;20156;-83
2023/05/21 02:47:17;;;;;;;28.93;25.80;;;;;;;14.02;91.70;95185.59;6295028;22;20182;-83
2023/05/21 02:49:42;;;;;;;29.67;26.20;;;;;;;14.00;91.89;95186.78;6301823;22;20157;-82
2023/05/21 02:52:07;;;;;;;29.13;25.70;;;;;;;14.00;91.82;95178.94;6273652;22;20180;-84
2023/05/21 02:54:33;;;;;;;29.33;25.03;;;;;;;14.01;91.77;95185.78;6274448;22;20160;-83
2023/05/21 02:56:58;;;;;;;32.70;24.87;;;;;;;13.99;91.50;95182.53;6297803;22;20171;-83
2023/05/21 02:59:23;;;;;;;30.33;26.37;;;;;;;13.98;91.87;95180.94;6274070;22;20160;-84
2023/05/21 03:01:49;;;;;;;30.17;25.50;;;;;;;13.98;92.16;95184.34;6272920;22;20458;-84
2023/05/21 03:04:16;;;;;;;30.20;26.07;;;;;;;13.99;92.17;95179.94;6272851;22;20167;-83
2023/05/21 03:06:41;;;;;;;31.30;27.33;;;;;;;13.91;93.20;95172.97;6295673;22;20176;-84
2023/05/21 03:09:07;;;;;;;28.80;25.43;;;;;;;13.88;93.02;95181.19;6297755;22;20160;-84
2023/05/21 03:11:32;;;;;;;31.33;25.97;;;;;;;13.89;92.87;95178.38;6270790;22;20187;-83
2023/05/21 03:13:57;;;;;;;29.13;26.03;;;;;;;13.88;92.88;95182.00;6256753;22;20170;-83
2023/05/21 03:16:22;;;;;;;29.37;24.97;;;;;;;13.86;92.75;95183.94;6281103;22;20152;-83
2023/05/21 03:18:48;;;;;;;30.53;25.67;;;;;;;13.87;92.70;95175.16;6250864;22;20218;-83
2023/05/21 03:21:14;;;;;;;30.03;26.27;;;;;;;13.86;92.89;95173.50;6251364;22;20668;-83
2023/05/21 03:23:40;;;;;;;30.27;24.60;;;;;;;13.86;92.77;95178.72;6277936;22;20160;-83
2023/05/21 03:26:06;;;;;;;30.40;26.90;;;;;;;13.80;92.68;95174.22;6251591;22;20161;-84
2023/05/21 03:28:31;;;;;;;31.30;25.77;;;;;;;13.77;92.57;95178.97;6277736;22;20224;-84
2023/05/21 03:30:56;;;;;;;33.73;26.57;;;;;;;13.80;92.82;95184.66;6226053;22;20180;-82
2023/05/21 03:33:22;;;;;;;32.03;26.50;;;;;;;13.82;92.83;95171.44;6227074;22;20199;-83
2023/05/21 03:35:47;;;;;;;28.50;25.10;;;;;;;13.81;93.13;95177.66;6277514;22;20148;-82
2023/05/21 03:38:12;;;;;;;29.33;25.60;;;;;;;13.81;92.90;95175.84;6251920;22;20176;-82
2023/05/21 03:40:38;;;;;;;31.60;25.47;;;;;;;13.78;93.17;95184.03;6251930;22;20198;-84
2023/05/21 03:43:03;;;;;;;31.20;27.50;;;;;;;13.80;93.07;95174.22;6278804;22;20490;-84
2023/05/21 03:45:28;;;;;;;33.67;26.93;;;;;;;13.83;93.29;95168.66;6277885;22;20148;-84
2023/05/21 03:47:53;;;;;;;30.37;26.03;;;;;;;13.82;93.49;95177.47;6250657;22;20153;-83
2023/05/21 03:50:19;;;;;;;35.40;27.63;;;;;;;13.79;93.24;95174.41;6251727;22;20157;-82
2023/05/21 03:52:44;;;;;;;31.97;26.77;;;;;;;13.77;93.60;95176.34;6251138;22;20867;-83
2023/05/21 03:55:09;;;;;;;31.07;26.80;;;;;;;13.76;93.36;95172.94;6250469;22;20613;-82
2023/05/21 03:57:36;;;;;;;31.77;26.97;;;;;;;13.76;93.11;95179.97;6249814;22;20214;-82
2023/05/21 04:00:01;;;;;;;35.77;27.23;;;;;;;13.79;93.53;95172.59;6250715;22;20164;-82
2023/05/21 04:02:26;;;;;;;31.73;26.23;;;;;;;13.80;93.42;95170.81;6249863;22;20183;-83
2023/05/21 04:04:52;;;;;;;33.33;26.50;;;;;;;13.81;94.27;95177.66;6276181;22;20594;-82
2023/05/21 04:07:18;;;;;;;31.40;26.30;;;;;;;13.84;93.90;95172.06;6249565;22;20148;-81
2023/05/21 04:09:43;;;;;;;32.20;26.37;;;;;;;13.85;93.71;95171.06;6250625;22;20160;-81
2023/05/21 04:12:09;;;;;;;35.40;25.23;;;;;;;13.89;93.32;95173.16;6275375;22;20173;-85
2023/05/21 04:14:36;;;;;;;31.70;25.37;;;;;;;13.89;93.29;95181.00;6250198;22;20186;-82
2023/05/21 04:17:03;;;;;;;28.87;25.63;;;;;;;13.92;93.04;95179.81;6223821;22;20184;-84
2023/05/21 04:19:28;;;;;;;30.83;26.53;;;;;;;13.92;93.10;95177.22;6263974;22;20168;-84
2023/05/21 04:21:54;;;;;;;29.83;24.80;;;;;;;13.98;92.46;95192.19;6248979;22;20182;-81
2023/05/21 04:24:21;;;;;;;29.37;24.77;;;;;;;13.96;92.35;95190.72;6275615;22;20220;-83
2023/05/21 04:26:46;;;;;;;29.30;25.10;;;;;;;13.99;92.05;95198.22;6275063;22;20153;-83
2023/05/21 04:29:12;;;;;;;29.10;24.30;;;;;;;14.00;91.91;95198.03;6277633;22;20171;-83
2023/05/21 04:31:37;;;;;;;29.40;24.57;;;;;;;14.11;91.92;95196.78;6248173;22;20188;-83
2023/05/21 04:34:03;;;;;;;28.13;24.93;;;;;;;14.14;91.29;95197.25;6248914;22;20533;-82
2023/05/21 04:36:28;;;;;;;29.03;24.70;;;;;;;14.16;91.16;95205.72;6274909;22;20152;-83
2023/05/21 04:38:54;;;;;;;30.00;25.50;;;;;;;14.23;91.63;95205.81;6250352;22;20602;-81
2023/05/21 04:41:20;;;;;;;28.20;24.10;;;;;;;14.25;91.71;95214.28;6250464;22;20198;-82
2023/05/21 04:43:45;;;;;;;27.57;24.40;;;;;;;14.38;91.31;95211.84;6250418;22;20152;-83
2023/05/21 04:46:10;;;;;;;30.17;25.47;;;;;;;14.42;91.31;95209.72;6276036;22;20161;-83
2023/05/21 04:48:36;;;;;;;30.53;26.00;;;;;;;14.49;90.82;95215.03;6248872;22;20239;-81
2023/05/21 04:51:04;;;;;;;30.53;25.40;;;;;;;14.43;91.95;95217.38;6269805;22;20334;-81
2023/05/21 04:53:29;;;;;;;29.20;24.03;;;;;;;14.53;91.07;95209.28;6248252;22;20179;-81
2023/05/21 04:55:55;;;;;;;28.87;25.80;;;;;;;14.63;91.26;95211.63;6271688;22;20246;-81
2023/05/21 04:58:20;;;;;;;31.60;26.90;;;;;;;14.55;91.76;95206.50;6247285;22;20184;-81
2023/05/21 05:00:45;;;;;;;27.53;24.63;;;;;;;14.80;91.32;95215.69;6273769;22;20245;-81
2023/05/21 05:03:12;;;;;;;30.53;24.80;;;;;;;14.93;90.04;95212.41;6247748;22;20156;-81
2023/05/21 05:05:37;;;;;;;32.00;24.20;;;;;;;14.97;90.06;95208.44;6247732;22;20553;-82
2023/05/21 05:08:03;;;;;;;28.93;24.93;;;;;;;14.99;89.79;95216.91;6248059;22;20620;-81
2023/05/21 05:10:28;;;;;;;29.57;25.10;;;;;;;15.31;88.85;95223.53;6273488;22;20235;-82
2023/05/21 05:12:54;;;;;;;30.47;24.93;;;;;;;15.28;87.95;95229.97;6248689;22;20191;-82
2023/05/21 05:15:19;;;;;;;31.33;24.93;;;;;;;15.50;87.02;95220.31;6249109;22;20156;-81
2023/05/21 05:17:47;;;;;;;27.90;24.90;;;;;;;15.62;86.96;95219.84;6273216;22;20520;-81
2023/05/21 05:20:12;;;;;;;29.23;24.83;;;;;;;15.79;85.79;95218.59;6273862;22;20164;-81
2023/05/21 05:22:37;;;;;;;25.73;22.93;;;;;;;16.01;83.99;95219.41;6248696;22;20161;-82
2023/05/21 05:25:03;;;;;;;24.87;22.13;;;;;;;16.33;82.84;95207.56;6274677;22;20232;-82
2023/05/21 05:27:28;;;;;;;25.50;22.77;;;;;;;16.62;80.17;95206.53;6274006;22;20153;-80
2023/05/21 05:29:53;;;;;;;24.73;21.97;;;;;;;17.17;77.46;95213.50;6247827;22;20161;-81
2023/05/21 05:32:19;;;;;;;25.60;20.50;;;;;;;17.82;75.95;95217.31;6273110;22;20641;-80
2023/05/21 05:34:45;;;;;;;25.02;21.08;;;;;;;18.40;71.94;95220.16;6275470;22;20153;-81
2023/05/21 05:37:10;;;;;;;23.55;19.52;;;;;;;18.99;68.32;95217.63;6247564;22;20525;-81
2023/05/21 05:39:35;;;;;;;20.85;18.70;;;;;;;19.68;66.08;95216.94;6273612;22;20169;-79
2023/05/21 05:42:02;;;;;;;21.52;18.42;;;;;;;20.14;61.76;95215.81;6247723;22;20626;-81
2023/05/21 05:44:27;;;;;;;20.70;18.45;;;;;;;20.41;60.92;95213.75;6277755;22;20153;-79
2023/05/21 05:46:52;;;;;;;19.40;17.38;;;;;;;20.73;61.17;95215.31;6278087;22;20571;-80
2023/05/21 05:49:17;;;;;;;18.35;16.40;;;;;;;21.35;57.89;95217.91;6276670;22;20157;-81
2023/05/21 05:51:43;;;;;;;17.58;15.68;;;;;;;22.14;53.54;95213.38;6278376;22;20222;-81
2023/05/21 05:54:08;;;;;;;17.48;15.70;;;;;;;22.30;53.71;95224.09;6249675;22;20160;-82
2023/05/21 05:56:34;;;;;;;18.08;16.20;;;;;;;22.70;51.84;95218.09;6274988;22;20459;-83
2023/05/21 05:58:59;;;;;;;17.58;15.68;;;;;;;22.96;52.09;95218.69;6249055;22;20204;-83
2023/05/21 06:01:25;;;;;;;20.38;16.25;;;;;;;23.01;49.56;95216.16;6274041;22;20210;-82
2023/05/21 06:03:50;;;;;;;16.15;14.52;;;;;;;23.64;47.63;95226.72;6276089;22;20152;-82
2023/05/21 06:06:16;;;;;;;16.85;15.18;;;;;;;22.61;49.42;95222.13;6273441;22;20153;-82
2023/05/21 06:08:41;;;;;;;18.75;15.88;;;;;;;22.61;50.73;95227.44;6249093;22;20232;-82
2023/05/21 06:11:07;;;;;;;15.65;14.05;;;;;;;22.31;50.94;95228.34;6248310;22;20168;-81
2023/05/21 06:13:32;;;;;;;16.95;15.23;;;;;;;22.33;50.90;95228.09;6276900;22;20157;-83
2023/05/21 06:15:57;;;;;;;17.65;15.85;;;;;;;22.18;52.53;95227.75;6249541;22;20153;-83
2023/05/21 06:18:23;;;;;;;17.55;15.15;;;;;;;22.73;50.39;95230.91;6275083;22;20495;-83
2023/05/21 06:20:48;;;;;;;16.33;14.80;;;;;;;23.29;48.58;95239.25;6249230;22;20181;-82
2023/05/21 06:23:13;;;;;;;16.40;14.80;;;;;;;23.25;48.83;95235.47;6250769;22;20164;-83
2023/05/21 06:25:39;;;;;;;16.67;15.07;;;;;;;22.91;49.52;95232.66;6252772;22;20165;-83
2023/05/21 06:28:04;;;;;;;17.38;14.27;;;;;;;24.65;44.62;95242.78;6278281;22;20157;-84
2023/05/21 06:30:30;;;;;;;16.08;14.55;;;;;;;23.40;48.03;95236.56;6279687;22;20211;-84
2023/05/21 06:32:56;;;;;;;15.02;13.65;;;;;;;24.28;45.88;95234.47;6279222;22;20591;-85
2023/05/21 06:35:21;;;;;;;15.13;13.65;;;;;;;24.82;45.20;95227.63;6281099;22;20667;-85
2023/05/21 06:37:47;;;;;;;14.43;12.70;;;;;;;25.81;42.29;95225.97;6282202;22;20216;-83
2023/05/21 06:40:12;;;;;;;15.68;14.27;;;;;;;24.68;44.80;95237.00;6284002;22;20149;-79
2023/05/21 06:42:38;;;;;;;13.55;12.27;;;;;;;26.17;41.96;95227.91;6283727;22;20210;-80
2023/05/21 06:45:03;;;;;;;13.65;12.25;;;;;;;26.45;40.82;95232.16;6288647;22;20153;-83
2023/05/21 06:47:29;;;;;;;14.32;12.90;;;;;;;25.71;41.78;95221.34;6289271;22;20159;-82
2023/05/21 06:49:54;;;;;;;15.25;13.75;;;;;;;24.93;42.17;95219.81;6287827;22;20175;-84
2023/05/21 06:52:19;;;;;;;14.48;13.07;;;;;;;24.39;43.56;95228.31;6287794;22;20191;-83
2023/05/21 06:54:45;;;;;;;15.07;13.57;;;;;;;24.54;43.05;95236.50;6289132;22;20156;-81
2023/05/21 06:57:10;;;;;;;14.10;12.70;;;;;;;25.37;41.93;95228.66;6286698;22;20634;-83
2023/05/21 06:59:35;;;;;;;14.57;13.18;;;;;;;25.64;41.00;95232.16;6291796;22;20202;-82
2023/05/21 07:02:03;;;;;;;13.95;12.52;;;;;;;25.37;42.45;95233.97;6290987;22;20176;-81
2023/05/21 07:04:29;;;;;;;13.77;12.25;;;;;;;25.41;41.91;95237.72;6289514;22;20161;-82
2023/05/21 07:06:57;;;;;;;13.35;12.10;;;;;;;25.92;41.93;95240.97;6317213;22;20216;-85
2023/05/21 07:09:25;;;;;;;13.48;12.27;;;;;;;25.20;41.76;95243.84;6288809;22;20493;-82
2023/05/21 07:11:52;;;;;;;13.25;11.95;;;;;;;27.35;38.95;95232.19;6290269;22;20181;-83
2023/05/21 07:14:17;;;;;;;13.05;11.63;;;;;;;26.71;37.77;95238.47;6264916;22;20172;-83
2023/05/21 07:16:42;;;;;;;13.77;12.38;;;;;;;25.40;41.50;95233.47;6289676;22;20172;-84
2023/05/21 07:19:08;;;;;;;13.65;12.20;;;;;;;25.82;40.96;95230.25;6261249;22;20171;-84
2023/05/21 07:21:33;;;;;;;13.35;12.05;;;;;;;26.31;40.30;95232.81;6261889;22;20176;-84
2023/05/21 07:23:58;;;;;;;13.07;11.88;;;;;;;26.01;39.57;95228.81;6288135;22;20194;-84
2023/05/21 07:26:25;;;;;;;13.07;11.60;;;;;;;25.74;40.49;95223.50;6265138;22;20148;-84
2023/05/21 07:28:50;;;;;;;13.20;11.60;;;;;;;25.56;39.99;95226.47;6265566;22;20167;-84
2023/05/21 07:31:15;;;;;;;12.77;11.57;;;;;;;26.57;39.20;95231.97;6263190;22;20180;-84
2023/05/21 07:33:41;;;;;;;12.45;11.20;;;;;;;26.09;39.08;95230.22;6255307;22;20172;-85
2023/05/21 07:36:06;;;;;;;13.30;12.07;;;;;;;25.48;39.53;95225.06;6253315;22;20622;-84
2023/05/21 07:38:31;;;;;;;14.07;12.63;;;;;;;25.42;40.45;95231.34;6254708;22;20186;-84
2023/05/21 07:40:57;;;;;;;12.57;11.27;;;;;;;25.26;39.86;95232.22;6281746;22;20198;-84
2023/05/21 07:43:22;;;;;;;13.35;12.05;;;;;;;26.37;37.67;95231.81;6280512;22;20518;-84
2023/05/21 07:45:48;;;;;;;12.30;11.05;;;;;;;26.31;38.43;95225.63;6279082;22;20148;-84
2023/05/21 07:48:13;;;;;;;13.32;11.30;;;;;;;26.13;39.30;95226.81;6279524;22;20148;-84
2023/05/21 07:50:38;;;;;;;12.43;11.23;;;;;;;26.89;38.16;95226.59;6254082;22;20177;-84
2023/05/21 07:53:04;;;;;;;12.88;11.57;;;;;;;27.03;38.43;95221.63;6253795;22;20161;-85
2023/05/21 07:55:29;;;;;;;12.75;11.23;;;;;;;26.80;39.40;95226.28;6279498;22;20160;-85
2023/05/21 07:57:55;;;;;;;12.95;11.65;;;;;;;26.27;40.02;95221.88;6254392;22;20506;-85
2023/05/21 08:00:22;;;;;;;13.55;12.35;;;;;;;26.76;39.58;95224.38;6279938;22;20154;-85
2023/05/21 08:02:47;;;;;;;13.30;11.95;;;;;;;25.68;40.66;95225.28;6229631;22;20652;-85
2023/05/21 08:05:15;;;;;;;12.85;11.55;;;;;;;25.15;41.65;95225.97;6253742;22;20156;-84
2023/05/21 08:07:40;;;;;;;12.90;11.57;;;;;;;25.02;43.20;95221.84;6254134;22;20494;-85
2023/05/21 08:10:06;;;;;;;14.30;12.98;;;;;;;23.62;45.64;95225.34;6254080;22;20159;-84
2023/05/21 08:12:32;;;;;;;13.90;12.63;;;;;;;23.22;46.34;95223.47;6280716;22;20180;-85
2023/05/21 08:14:58;;;;;;;13.98;12.48;;;;;;;22.16;49.86;95219.22;6279894;22;20175;-84
2023/05/21 08:17:23;;;;;;;14.45;13.05;;;;;;;22.27;50.14;95227.19;6279847;22;20172;-84
2023/05/21 08:19:48;;;;;;;15.88;13.15;;;;;;;22.22;51.32;95216.47;6297492;22;20599;-85
2023/05/21 08:22:14;;;;;;;14.90;13.32;;;;;;;22.42;50.81;95220.63;6279611;22;20183;-85
2023/05/21 08:24:40;;;;;;;16.50;14.93;;;;;;;21.90;54.15;95204.53;6278534;22;20148;-85
2023/05/21 08:27:06;;;;;;;15.57;13.85;;;;;;;21.31;55.17;95222.81;6278583;22;20148;-84
2023/05/21 08:29:31;;;;;;;15.02;13.45;;;;;;;21.04;56.11;95219.66;6253491;22;20156;-83
2023/05/21 08:31:57;;;;;;;14.52;13.13;;;;;;;21.30;55.63;95215.94;6278430;22;20195;-84
2023/05/21 08:34:22;;;;;;;15.93;14.43;;;;;;;21.09;56.50;95211.88;6278636;22;20171;-85
2023/05/21 08:36:48;;;;;;;15.43;13.82;;;;;;;20.88;57.75;95218.41;6252209;22;20190;-85
2023/05/21 08:39:14;;;;;;;16.13;14.20;;;;;;;21.41;55.30;95223.09;6278730;22;20231;-84
2023/05/21 08:41:40;;;;;;;15.88;14.10;;;;;;;21.54;55.27;95216.81;6251555;22;20222;-85
2023/05/21 08:44:10;;;;;;;16.33;14.70;;;;;;;21.63;54.99;95225.25;6278294;22;20157;-85
2023/05/21 08:46:39;;;;;;;16.65;14.70;;;;;;;21.36;55.21;95224.78;6277194;22;20574;-84
2023/05/21 08:49:05;;;;;;;15.77;14.25;;;;;;;21.56;56.22;95221.91;6252355;22;20160;-85
2023/05/21 08:51:30;;;;;;;13.82;12.60;;;;;;;20.86;57.16;95233.66;6278052;22;20172;-85
2023/05/21 08:53:56;;;;;;;15.30;13.80;;;;;;;21.01;55.95;95227.19;6252380;22;20160;-85
2023/05/21 08:56:22;;;;;;;15.10;13.70;;;;;;;21.07;55.70;95223.69;6251405;22;20251;-84
2023/05/21 08:58:47;;;;;;;14.07;12.77;;;;;;;21.06;56.47;95225.53;6277768;22;20188;-85
2023/05/21 09:01:13;;;;;;;15.65;13.75;;;;;;;21.04;55.88;95229.41;6277580;22;20234;-85
2023/05/21 09:03:39;;;;;;;15.50;13.77;;;;;;;21.10;56.34;95237.25;6252201;22;20159;-85
2023/05/21 09:06:12;;;;;;;15.00;13.52;;;;;;;21.07;57.25;95231.59;6252023;22;20156;-85
2023/05/21 09:08:42;;;;;;;13.43;12.23;;;;;;;21.31;54.67;95228.09;6277406;22;20137;-84
2023/05/21 09:11:07;;;;;;;14.77;13.18;;;;;;;21.27;54.57;95241.97;6251640;22;20891;-85
2023/05/21 09:13:33;;;;;;;14.13;12.73;;;;;;;21.46;54.28;95233.78;6251693;22;20172;-85
2023/05/21 09:15:59;;;;;;;16.02;13.13;;;;;;;21.45;54.89;95244.59;6277632;22;20152;-85
2023/05/21 09:18:26;;;;;;;13.65;11.90;;;;;;;21.35;54.06;95244.31;6277827;22;20184;-85
2023/05/21 09:20:52;;;;;;;13.50;12.23;;;;;;;20.99;54.42;95247.75;6277512;22;20181;-85
2023/05/21 09:23:18;;;;;;;13.73;12.32;;;;;;;21.39;51.95;95235.72;6252877;22;20156;-85
2023/05/21 09:25:47;;;;;;;14.48;12.98;;;;;;;21.41;53.60;95248.72;6278270;22;20163;-85
2023/05/21 09:28:16;;;;;;;13.65;12.45;;;;;;;21.23;52.72;95251.34;6277129;22;20279;-85
2023/05/21 09:30:46;;;;;;;13.45;11.77;;;;;;;21.71;51.76;95251.38;6252773;22;20254;-85
2023/05/21 09:33:11;;;;;;;14.05;12.48;;;;;;;21.76;50.96;95249.69;6251894;22;20519;-85
2023/05/21 09:35:43;;;;;;;14.23;12.27;;;;;;;22.04;49.98;95249.06;6252820;22;20170;-85
2023/05/21 09:38:09;;;;;;;14.90;12.80;;;;;;;22.51;47.58;95249.16;6251015;22;20207;-84
2023/05/21 09:40:34;;;;;;;12.70;11.50;;;;;;;22.51;48.60;95249.16;6278025;22;20176;-85
2023/05/21 09:42:59;;;;;;;12.73;11.52;;;;;;;22.79;49.47;95250.31;6278181;22;20153;-85
2023/05/21 09:45:26;;;;;;;14.23;12.90;;;;;;;21.65;51.42;95252.28;6277515;22;20226;-84
2023/05/21 09:47:54;;;;;;;12.82;11.63;;;;;;;21.55;53.16;95246.69;6251052;22;20636;-84
2023/05/21 09:50:20;;;;;;;13.60;12.30;;;;;;;21.46;52.13;95254.13;6251650;22;20490;-84
2023/05/21 09:52:46;;;;;;;13.43;12.02;;;;;;;22.06;50.69;95257.56;6276993;22;20256;-84
2023/05/21 09:55:13;;;;;;;13.95;12.63;;;;;;;22.30;49.93;95253.19;6251837;22;20206;-84
2023/05/21 09:57:42;;;;;;;15.30;13.30;;;;;;;22.24;50.79;95259.38;6253887;22;20206;-84
2023/05/21 10:00:09;;;;;;;13.63;12.38;;;;;;;22.38;49.63;95253.88;6254510;22;20160;-84
2023/05/21 10:02:36;;;;;;;14.05;12.70;;;;;;;22.14;50.49;95260.97;6279749;22;20893;-84
2023/05/21 10:05:04;;;;;;;14.48;13.07;;;;;;;22.02;51.43;95253.78;6253854;22;20191;-84
2023/05/21 10:07:29;;;;;;;14.68;13.23;;;;;;;21.56;52.56;95254.44;6253176;22;20651;-84
2023/05/21 10:09:56;;;;;;;16.20;13.70;;;;;;;21.83;52.75;95256.72;6279809;22;20149;-84
2023/05/21 10:12:23;;;;;;;14.75;13.35;;;;;;;22.24;50.20;95269.94;6278764;22;20176;-84
2023/05/21 10:14:51;;;;;;;14.32;12.93;;;;;;;21.71;51.57;95260.09;6254814;22;20157;-84
2023/05/21 10:17:17;;;;;;;15.32;13.55;;;;;;;22.30;49.80;95257.66;6279383;22;20180;-84
2023/05/21 10:19:42;;;;;;;14.07;12.68;;;;;;;22.26;49.79;95265.25;6260103;22;20172;-84
2023/05/21 10:22:08;;;;;;;13.57;12.32;;;;;;;22.71;48.33;95256.81;6258723;22;20178;-84
2023/05/21 10:24:33;;;;;;;13.93;12.57;;;;;;;22.05;49.74;95255.97;6257875;22;20156;-84
2023/05/21 10:27:00;;;;;;;13.23;11.77;;;;;;;22.41;48.35;95259.53;6258060;22;20152;-84
2023/05/21 10:29:26;;;;;;;13.95;12.68;;;;;;;21.95;50.36;95253.06;6284017;22;20183;-83
2023/05/21 10:31:51;;;;;;;14.70;12.82;;;;;;;21.69;51.29;95258.72;6258944;22;20187;-83
2023/05/21 10:34:18;;;;;;;13.85;12.25;;;;;;;21.67;50.80;95250.22;6259129;22;20159;-83
2023/05/21 10:36:43;;;;;;;13.98;12.70;;;;;;;21.82;51.12;95245.34;6257296;22;20590;-84
2023/05/21 10:39:11;;;;;;;13.52;12.13;;;;;;;22.41;49.73;95253.44;6284416;22;20148;-84
2023/05/21 10:41:59;;;;;;;14.63;11.77;;;;;;;23.12;47.17;95255.06;6285267;22;20174;-84
2023/05/21 10:44:50;;;;;;;13.10;11.85;;;;;;;22.38;49.48;95264.47;6258671;22;20156;-84
2023/05/21 10:47:35;;;;;;;13.70;12.32;;;;;;;22.92;48.35;95259.94;6297514;22;20152;-84
2023/05/21 10:50:10;;;;;;;14.07;12.73;;;;;;;22.65;48.60;95260.34;6259419;22;20163;-84
2023/05/21 10:52:51;;;;;;;12.70;11.57;;;;;;;23.70;47.36;95254.16;6310029;22;20607;-84
2023/05/21 10:55:26;;;;;;;12.93;11.68;;;;;;;22.65;49.76;95257.72;6284267;22;20155;-84
2023/05/21 10:58:13;;;;;;;14.63;13.02;;;;;;;22.86;47.91;95254.50;6283896;22;20163;-85
2023/05/21 11:00:40;;;;;;;13.77;12.38;;;;;;;23.17;46.59;95266.56;6258675;22;20175;-84
2023/05/21 11:03:06;;;;;;;12.98;11.27;;;;;;;22.58;48.39;95257.81;6258597;22;20152;-84
2023/05/21 11:05:51;;;;;;;13.65;12.35;;;;;;;22.94;48.33;95253.34;6258015;22;20182;-84
2023/05/21 11:08:22;;;;;;;13.38;11.98;;;;;;;22.14;48.57;95258.31;6257949;22;20153;-83
2023/05/21 11:10:56;;;;;;;13.13;11.82;;;;;;;23.26;47.60;95258.28;6310572;22;20637;-83
2023/05/21 11:13:22;;;;;;;14.20;12.68;;;;;;;23.48;46.07;95253.94;6284559;22;20175;-84